Intercession City, Florida
Current Conditions -  °F | °C
As of 9:50 PM on Friday 31 Oct 2014 (Local Time) from KISM Reporting Station
Clear Clear  
Wind Chill: 63°   Ceiling: Unl
Heat Index: 63°   Visibility: 10mi
Dew Point: 54°   Wind: 9mph
Humidity: 72%   Direction: 290°WNW
Pressure: 29.9"   Gusts: NA
Location:  28.26°N, 81.51°W
Report Text: KISM 010150Z 29008KT 10SM SKC 17/12 A2990 RMK LAST
Loading
Personal Weather Stations






























Interactive Weather Map New forecast layout! Learn more

10-Day Weather Forecast

Advertisements
Track Severe Weather on mobile